Time;durP1;ratioP1;P1;durP2;ratioP2;P2;SDS_P1;SDS_P2;PMS_P1;PMS_P2;Temp;Humidity;BMP_temperature;BMP_pressure;BME280_temperature;BME280_humidity;BME280_pressure;Samples;Min_cycle;Max_cycle;Signal;HPM_P1;HPM_P2
2021/05/02 00:00:22;;;;;;;;;;;;;;;9.38;77.84;98164.65;2163691;82;20231;-75
2021/05/02 00:03:26;;;;;;;;;;;;;;;9.36;78.17;98163.45;2163701;82;20134;-76
2021/05/02 00:06:28;;;;;;;;;;;;;;;9.34;78.35;98170.09;2163492;82;20437;-76
2021/05/02 00:09:30;;;;;;;;;;;;;;;9.33;78.71;98164.97;2163582;82;20458;-76
2021/05/02 00:12:32;;;;;;;;;;;;;;;9.33;78.49;98163.17;2163738;82;20280;-76
2021/05/02 00:15:34;;;;;;;;;;;;;;;9.33;78.52;98163.17;2163497;82;20261;-76
2021/05/02 00:18:36;;;;;;;;;;;;;;;9.33;79.13;98161.86;2163421;82;20127;-76
2021/05/02 00:21:38;;;;;;;;;;;;;;;9.32;78.97;98158.05;2163511;82;20225;-76
2021/05/02 00:24:40;;;;;;;;;;;;;;;9.31;78.81;98153.73;2163822;82;20241;-76
2021/05/02 00:27:42;;;;;;;;;;;;;;;9.28;78.72;98144.34;2163445;82;20417;-76
2021/05/02 00:30:44;;;;;;;;;;;;;;;9.27;79.01;98143.97;2163596;82;20497;-76
2021/05/02 00:33:46;;;;;;;;;;;;;;;9.24;79.19;98135.02;2163512;82;20146;-76
2021/05/02 00:36:48;;;;;;;;;;;;;;;9.22;79.41;98127.72;2163488;82;20190;-76
2021/05/02 00:39:50;;;;;;;;;;;;;;;9.19;78.96;98122.24;2163419;82;20174;-76
2021/05/02 00:42:52;;;;;;;;;;;;;;;9.20;79.08;98121.77;2163526;82;20150;-76
2021/05/02 00:45:54;;;;;;;;;;;;;;;9.22;79.05;98115.12;2163579;82;20505;-76
2021/05/02 00:48:56;;;;;;;;;;;;;;;9.24;78.60;98112.77;2163783;82;20146;-76
2021/05/02 00:51:58;;;;;;;;;;;;;;;9.29;78.70;98125.06;2163464;82;20154;-76
2021/05/02 00:55:00;;;;;;;;;;;;;;;9.28;78.84;98114.25;2167055;81;20520;-76
2021/05/02 00:58:02;;;;;;;;;;;;;;;9.33;78.45;98113.94;2173569;82;20225;-76
2021/05/02 01:01:04;;;;;;;;;;;;;;;9.35;78.67;98110.27;2173731;82;20413;-76
2021/05/02 01:04:06;;;;;;;;;;;;;;;9.36;79.06;98100.63;2174017;82;20265;-75
2021/05/02 01:07:08;;;;;;;;;;;;;;;9.34;79.47;98092.06;2173646;82;20170;-76
2021/05/02 01:10:10;;;;;;;;;;;;;;;9.33;79.22;98080.73;2144797;82;20229;-76
2021/05/02 01:13:12;;;;;;;;;;;;;;;9.29;79.41;98070.11;2173760;82;20134;-76
2021/05/02 01:16:14;;;;;;;;;;;;;;;9.27;79.54;98061.53;2173985;82;20226;-76
2021/05/02 01:19:16;;;;;;;;;;;;;;;9.25;79.64;98048.18;2173844;82;20504;-76
2021/05/02 01:22:18;;;;;;;;;;;;;;;9.21;79.41;98031.87;2173828;82;20528;-76
2021/05/02 01:25:21;;;;;;;;;;;;;;;9.17;80.29;98008.98;2174054;82;20134;-76
2021/05/02 01:28:23;;;;;;;;;;;;;;;9.15;80.41;98008.72;2173754;82;20229;-76
2021/05/02 01:31:27;;;;;;;;;;;;;;;9.15;80.68;98003.48;2173818;82;20174;-75
2021/05/02 01:34:29;;;;;;;;;;;;;;;9.16;80.48;98007.78;2173831;82;20225;-76
2021/05/02 01:37:31;;;;;;;;;;;;;;;9.15;80.66;98008.27;2144368;82;20170;-76
2021/05/02 01:40:33;;;;;;;;;;;;;;;9.15;80.48;98005.65;2174249;82;20122;-75
2021/05/02 01:43:35;;;;;;;;;;;;;;;9.19;79.94;98006.26;2173864;82;20297;-76
2021/05/02 01:46:37;;;;;;;;;;;;;;;9.23;79.87;98014.27;2173828;82;20230;-76
2021/05/02 01:49:39;;;;;;;;;;;;;;;9.27;80.00;98013.61;2173781;82;20229;-76
2021/05/02 01:52:40;;;;;;;;;;;;;;;9.31;79.29;97996.72;2173893;82;20519;-76
2021/05/02 01:55:42;;;;;;;;;;;;;;;9.39;79.25;97973.48;2169040;81;20221;-76
2021/05/02 01:58:44;;;;;;;;;;;;;;;9.43;79.72;97946.16;2163591;82;20292;-76
2021/05/02 02:01:46;;;;;;;;;;;;;;;9.41;79.55;97943.27;2163632;82;20246;-76
2021/05/02 02:04:48;;;;;;;;;;;;;;;9.36;80.11;97930.52;2163657;82;20225;-76
2021/05/02 02:07:50;;;;;;;;;;;;;;;9.34;80.21;97922.78;2163534;82;20138;-76
2021/05/02 02:10:52;;;;;;;;;;;;;;;9.32;80.38;97925.12;2163728;82;20234;-76
2021/05/02 02:13:54;;;;;;;;;;;;;;;9.34;80.21;97929.32;2163590;82;20281;-76
2021/05/02 02:16:56;;;;;;;;;;;;;;;9.38;79.96;97935.64;2163604;82;20147;-76
2021/05/02 02:19:58;;;;;;;;;;;;;;;9.47;79.63;97935.02;2163515;82;20505;-76
2021/05/02 02:23:00;;;;;;;;;;;;;;;9.51;79.73;97916.80;2163584;82;20138;-76
2021/05/02 02:26:02;;;;;;;;;;;;;;;9.53;79.98;97903.98;2163597;82;20425;-77
2021/05/02 02:29:04;;;;;;;;;;;;;;;9.50;80.22;97881.13;2163797;82;20243;-76
2021/05/02 02:32:06;;;;;;;;;;;;;;;9.47;80.11;97883.97;2163590;82;20230;-76
2021/05/02 02:35:08;;;;;;;;;;;;;;;9.50;80.03;97879.81;2163638;82;20580;-76
2021/05/02 02:38:10;;;;;;;;;;;;;;;9.51;80.42;97874.92;2163545;82;20242;-76
2021/05/02 02:41:13;;;;;;;;;;;;;;;9.55;79.74;97873.77;2142590;82;20148;-76
2021/05/02 02:44:14;;;;;;;;;;;;;;;9.59;79.60;97861.30;2163573;82;20166;-76
2021/05/02 02:47:17;;;;;;;;;;;;;;;9.63;79.49;97857.03;2163651;82;20520;-76
2021/05/02 02:50:19;;;;;;;;;;;;;;;9.66;79.42;97845.02;2163682;82;20516;-76
2021/05/02 02:53:21;;;;;;;;;;;;;;;9.71;79.13;97835.52;2142509;82;20230;-76
2021/05/02 02:56:23;;;;;;;;;;;;;;;9.74;79.56;97814.37;2174425;81;20417;-76
2021/05/02 02:59:25;;;;;;;;;;;;;;;9.77;78.76;97806.28;2181431;82;20259;-76
2021/05/02 03:02:27;;;;;;;;;;;;;;;9.78;78.76;97806.63;2180940;82;20508;-76
2021/05/02 03:05:30;;;;;;;;;;;;;;;9.82;78.73;97809.38;2180858;82;20523;-76
2021/05/02 03:08:32;;;;;;;;;;;;;;;9.85;78.31;97812.25;2181318;82;20145;-76
2021/05/02 03:11:33;;;;;;;;;;;;;;;9.92;78.22;97829.67;2181013;82;20228;-76
2021/05/02 03:14:36;;;;;;;;;;;;;;;9.94;77.89;97827.75;2181266;82;20567;-76
2021/05/02 03:17:38;;;;;;;;;;;;;;;10.01;77.64;97811.94;2180924;82;20344;-76
2021/05/02 03:20:41;;;;;;;;;;;;;;;9.99;77.60;97774.07;2129469;82;20489;-76
2021/05/02 03:23:43;;;;;;;;;;;;;;;9.93;77.55;97747.49;2181353;82;20229;-76
2021/05/02 03:26:44;;;;;;;;;;;;;;;9.93;77.82;97751.42;2181101;82;20571;-76
2021/05/02 03:29:47;;;;;;;;;;;;;;;9.90;78.03;97766.92;2181170;82;20221;-76
2021/05/02 03:32:49;;;;;;;;;;;;;;;9.92;77.96;97760.25;2181180;82;20412;-76
2021/05/02 03:35:51;;;;;;;;;;;;;;;9.91;77.92;97746.79;2180985;82;20225;-76
2021/05/02 03:38:53;;;;;;;;;;;;;;;9.91;77.90;97746.30;2180916;82;20233;-76
2021/05/02 03:41:55;;;;;;;;;;;;;;;9.95;78.26;97729.41;2181097;82;20264;-76
2021/05/02 03:44:57;;;;;;;;;;;;;;;9.94;78.37;97705.95;2180977;82;20158;-76
2021/05/02 03:47:59;;;;;;;;;;;;;;;9.93;78.45;97702.97;2181142;82;20237;-76
2021/05/02 03:51:01;;;;;;;;;;;;;;;9.95;78.06;97708.94;2181234;82;20492;-76
2021/05/02 03:54:03;;;;;;;;;;;;;;;9.99;78.40;97717.75;2181000;82;20150;-76
2021/05/02 03:57:04;;;;;;;;;;;;;;;10.03;78.11;97698.72;2167363;81;20481;-76
2021/05/02 04:00:06;;;;;;;;;;;;;;;10.08;78.12;97689.19;2163477;82;20132;-76
2021/05/02 04:03:09;;;;;;;;;;;;;;;10.10;78.56;97684.20;2163699;82;20186;-76
2021/05/02 04:06:11;;;;;;;;;;;;;;;10.13;78.24;97683.95;2142719;82;20528;-76
2021/05/02 04:09:13;;;;;;;;;;;;;;;10.20;78.32;97676.43;2163476;82;20147;-76
2021/05/02 04:12:15;;;;;;;;;;;;;;;10.23;78.64;97667.05;2163540;82;20265;-76
2021/05/02 04:15:17;;;;;;;;;;;;;;;10.25;78.86;97649.89;2142749;82;20484;-76
2021/05/02 04:18:19;;;;;;;;;;;;;;;10.28;78.43;97641.30;2163445;82;20150;-76
2021/05/02 04:21:20;;;;;;;;;;;;;;;10.30;78.36;97634.16;2163500;82;20436;-76
2021/05/02 04:24:22;;;;;;;;;;;;;;;10.30;78.90;97630.23;2163459;82;20148;-76
2021/05/02 04:27:24;;;;;;;;;;;;;;;10.35;78.82;97622.03;2163480;82;20445;-76
2021/05/02 04:30:26;;;;;;;;;;;;;;;10.36;78.63;97625.84;2163869;82;20238;-76
2021/05/02 04:33:28;;;;;;;;;;;;;;;10.45;78.76;97618.20;2163471;82;20469;-76
2021/05/02 04:36:30;;;;;;;;;;;;;;;10.47;78.59;97617.10;2163524;82;20229;-76
2021/05/02 04:39:32;;;;;;;;;;;;;;;10.50;78.62;97616.03;2163799;82;20249;-76
2021/05/02 04:42:34;;;;;;;;;;;;;;;10.52;78.59;97619.38;2164271;82;20281;-76
2021/05/02 04:45:36;;;;;;;;;;;;;;;10.56;78.69;97617.70;2163750;82;20230;-76
2021/05/02 04:48:38;;;;;;;;;;;;;;;10.61;78.53;97608.14;2163642;82;20245;-76
2021/05/02 04:51:40;;;;;;;;;;;;;;;10.60;78.61;97597.29;2163647;82;20134;-76
2021/05/02 04:54:42;;;;;;;;;;;;;;;10.64;78.47;97594.78;2164041;82;20226;-76
2021/05/02 04:57:44;;;;;;;;;;;;;;;10.65;78.60;97583.83;2163679;81;20177;-76
2021/05/02 05:00:46;;;;;;;;;;;;;;;10.68;78.52;97584.40;2163678;82;20230;-76
2021/05/02 05:03:48;;;;;;;;;;;;;;;10.73;78.36;97570.91;2163683;82;20229;-76
2021/05/02 05:06:50;;;;;;;;;;;;;;;10.79;78.15;97565.18;2163653;82;20225;-76
2021/05/02 05:09:52;;;;;;;;;;;;;;;10.74;78.16;97548.48;2163647;82;20237;-76
2021/05/02 05:12:58;;;;;;;;;;;;;;;10.70;78.61;97549.72;2163891;82;20272;-76
2021/05/02 05:16:02;;;;;;;;;;;;;;;10.68;78.54;97544.24;2163917;82;20229;-76
2021/05/02 05:19:06;;;;;;;;;;;;;;;10.67;78.47;97539.45;2163772;82;20138;-76
2021/05/02 05:22:08;;;;;;;;;;;;;;;10.66;78.35;97548.77;2163759;82;20288;-76
2021/05/02 05:25:10;;;;;;;;;;;;;;;10.62;78.73;97545.58;2163655;82;20233;-76
2021/05/02 05:28:12;;;;;;;;;;;;;;;10.61;79.12;97535.21;2163677;82;20225;-76
2021/05/02 05:31:14;;;;;;;;;;;;;;;10.58;78.96;97536.29;2163744;82;20233;-76
2021/05/02 05:34:16;;;;;;;;;;;;;;;10.61;79.00;97536.52;2163637;82;20147;-76
2021/05/02 05:37:18;;;;;;;;;;;;;;;10.66;79.16;97531.26;2163884;82;20493;-76
2021/05/02 05:40:20;;;;;;;;;;;;;;;10.69;78.71;97516.58;2163781;82;20295;-76
2021/05/02 05:43:22;;;;;;;;;;;;;;;10.67;79.33;97504.55;2163632;82;20138;-76
2021/05/02 05:46:25;;;;;;;;;;;;;;;10.64;79.24;97507.42;2163711;82;20543;-76
2021/05/02 05:49:27;;;;;;;;;;;;;;;10.75;79.50;97501.64;2163879;82;20230;-76
2021/05/02 05:52:29;;;;;;;;;;;;;;;10.84;78.97;97500.04;2142685;82;20226;-76
2021/05/02 05:55:31;;;;;;;;;;;;;;;10.91;79.20;97497.26;2164418;81;20225;-77
2021/05/02 05:58:34;;;;;;;;;;;;;;;10.95;79.08;97497.84;2180999;82;20233;-76
2021/05/02 06:01:36;;;;;;;;;;;;;;;10.92;78.98;97489.75;2181039;82;20221;-76
2021/05/02 06:04:38;;;;;;;;;;;;;;;10.94;79.28;97480.44;2181046;82;20416;-76
2021/05/02 06:07:40;;;;;;;;;;;;;;;11.04;79.27;97477.87;2181014;82;20233;-77
2021/05/02 06:10:42;;;;;;;;;;;;;;;11.13;79.17;97480.20;2181184;82;20504;-76
2021/05/02 06:13:44;;;;;;;;;;;;;;;11.20;79.51;97482.16;2181006;82;20268;-77
2021/05/02 06:16:46;;;;;;;;;;;;;;;11.28;79.34;97474.97;2181135;82;20634;-77
2021/05/02 06:19:48;;;;;;;;;;;;;;;11.34;79.44;97465.73;2181030;82;20229;-76
2021/05/02 06:22:50;;;;;;;;;;;;;;;11.42;79.38;97469.36;2181066;82;20133;-76
2021/05/02 06:25:52;;;;;;;;;;;;;;;11.48;79.40;97477.20;2181205;82;20229;-77
2021/05/02 06:28:54;;;;;;;;;;;;;;;11.59;79.60;97471.00;2181026;82;20162;-76
2021/05/02 06:31:56;;;;;;;;;;;;;;;11.59;79.43;97476.25;2181041;82;20225;-77
2021/05/02 06:34:58;;;;;;;;;;;;;;;11.57;79.50;97476.88;2181030;82;20515;-77
2021/05/02 06:38:00;;;;;;;;;;;;;;;11.51;79.58;97477.42;2180994;82;20137;-77
2021/05/02 06:41:02;;;;;;;;;;;;;;;11.47;79.87;97470.77;2180981;82;20189;-77
2021/05/02 06:44:04;;;;;;;;;;;;;;;11.46;80.14;97464.67;2153391;82;20253;-76
2021/05/02 06:47:06;;;;;;;;;;;;;;;11.43;80.35;97477.60;2181069;82;20496;-77
2021/05/02 06:50:08;;;;;;;;;;;;;;;11.38;80.20;97482.89;2181026;82;20257;-76
2021/05/02 06:53:11;;;;;;;;;;;;;;;11.34;80.20;97489.36;2180995;82;20544;-76
2021/05/02 06:56:13;;;;;;;;;;;;;;;11.30;80.32;97471.72;2177509;81;20222;-76
2021/05/02 06:59:15;;;;;;;;;;;;;;;11.34;80.68;97469.19;2163532;82;20178;-77
2021/05/02 07:02:17;;;;;;;;;;;;;;;11.39;80.78;97462.22;2163570;82;20139;-77
2021/05/02 07:05:19;;;;;;;;;;;;;;;11.43;80.68;97469.72;2163559;82;20154;-76
2021/05/02 07:08:21;;;;;;;;;;;;;;;11.49;80.56;97464.40;2163486;82;20237;-77
2021/05/02 07:11:23;;;;;;;;;;;;;;;11.54;80.81;97454.83;2163817;82;20238;-77
2021/05/02 07:14:25;;;;;;;;;;;;;;;11.59;80.73;97444.73;2163690;82;20229;-77
2021/05/02 07:17:27;;;;;;;;;;;;;;;11.65;80.96;97441.60;2163612;82;20401;-77
2021/05/02 07:20:30;;;;;;;;;;;;;;;11.72;81.03;97428.28;2163640;82;20414;-77
2021/05/02 07:23:32;;;;;;;;;;;;;;;11.81;81.56;97419.22;2163677;82;20230;-77
2021/05/02 07:26:34;;;;;;;;;;;;;;;11.84;81.40;97404.49;2163650;82;20225;-77
2021/05/02 07:29:36;;;;;;;;;;;;;;;11.84;81.48;97393.52;2163528;82;20433;-77
2021/05/02 07:32:38;;;;;;;;;;;;;;;11.84;81.51;97375.59;2163907;82;20134;-77
2021/05/02 07:35:40;;;;;;;;;;;;;;;11.83;81.72;97363.45;2163943;82;20230;-77
2021/05/02 07:38:42;;;;;;;;;;;;;;;11.82;81.56;97352.59;2163666;82;20516;-77
2021/05/02 07:41:44;;;;;;;;;;;;;;;11.82;81.96;97329.77;2163577;82;20166;-78
2021/05/02 07:44:47;;;;;;;;;;;;;;;11.81;81.82;97318.08;2163876;82;20250;-77
2021/05/02 07:47:49;;;;;;;;;;;;;;;11.78;81.87;97300.33;2163773;82;20142;-77
2021/05/02 07:50:51;;;;;;;;;;;;;;;11.74;82.26;97288.94;2163657;82;20409;-77
2021/05/02 07:53:53;;;;;;;;;;;;;;;11.71;82.33;97282.61;2163635;82;20529;-77
2021/05/02 07:56:55;;;;;;;;;;;;;;;11.71;82.43;97276.05;2166772;81;20269;-77
2021/05/02 07:59:59;;;;;;;;;;;;;;;11.67;82.93;97244.00;2173924;82;20142;-77
2021/05/02 08:03:01;;;;;;;;;;;;;;;11.64;82.84;97251.31;2173605;82;20141;-78
2021/05/02 08:06:03;;;;;;;;;;;;;;;11.58;84.01;97242.22;2173674;82;20143;-77
2021/05/02 08:09:05;;;;;;;;;;;;;;;11.54;83.90;97225.89;2173674;82;20256;-78
2021/05/02 08:12:09;;;;;;;;;;;;;;;11.52;83.21;97217.34;2173778;82;20366;-77
2021/05/02 08:15:11;;;;;;;;;;;;;;;11.48;83.96;97201.52;2173680;82;20241;-77
2021/05/02 08:18:13;;;;;;;;;;;;;;;11.46;84.83;97197.37;2173884;82;20508;-77
2021/05/02 08:21:17;;;;;;;;;;;;;;;11.49;85.12;97171.64;2173671;82;20264;-77
2021/05/02 08:24:19;;;;;;;;;;;;;;;11.57;84.94;97186.72;2173681;82;20150;-76
2021/05/02 08:27:21;;;;;;;;;;;;;;;11.67;84.80;97205.09;2173657;82;20540;-77
2021/05/02 08:30:23;;;;;;;;;;;;;;;11.75;84.92;97207.83;2173593;82;20240;-77
2021/05/02 08:33:25;;;;;;;;;;;;;;;11.83;83.99;97217.66;2144021;82;20264;-77
2021/05/02 08:36:27;;;;;;;;;;;;;;;11.92;83.97;97213.70;2173647;82;20229;-77
2021/05/02 08:39:29;;;;;;;;;;;;;;;11.98;83.93;97208.86;2174087;82;20225;-77
2021/05/02 08:42:31;;;;;;;;;;;;;;;12.06;83.99;97199.80;2173741;82;20493;-77
2021/05/02 08:45:33;;;;;;;;;;;;;;;12.11;84.84;97192.29;2174147;82;20162;-77
2021/05/02 08:48:35;;;;;;;;;;;;;;;12.10;84.85;97203.30;2173887;82;20261;-77
2021/05/02 08:51:37;;;;;;;;;;;;;;;12.11;84.30;97201.02;2173648;82;20413;-78
2021/05/02 08:54:39;;;;;;;;;;;;;;;12.17;85.40;97195.69;2173894;82;20232;-77
2021/05/02 08:57:41;;;;;;;;;;;;;;;12.24;84.28;97203.80;2168393;81;20242;-77
2021/05/02 09:00:43;;;;;;;;;;;;;;;12.36;84.13;97200.53;2163435;82;20178;-77
2021/05/02 09:03:45;;;;;;;;;;;;;;;12.55;84.40;97197.80;2142631;82;20198;-77
2021/05/02 09:06:47;;;;;;;;;;;;;;;12.72;84.33;97186.17;2142445;82;20221;-77
2021/05/02 09:09:49;;;;;;;;;;;;;;;12.87;83.74;97181.23;2163582;82;20544;-77
2021/05/02 09:12:51;;;;;;;;;;;;;;;13.01;83.59;97178.08;2163823;82;20225;-77
2021/05/02 09:15:53;;;;;;;;;;;;;;;13.22;83.16;97171.22;2163485;82;20122;-77
2021/05/02 09:18:55;;;;;;;;;;;;;;;13.41;82.72;97157.09;2163900;82;20178;-76
2021/05/02 09:21:57;;;;;;;;;;;;;;;13.49;82.57;97158.48;2163476;82;20138;-77
2021/05/02 09:24:59;;;;;;;;;;;;;;;13.62;82.28;97165.14;2163751;82;20242;-77
2021/05/02 09:28:01;;;;;;;;;;;;;;;13.66;82.19;97159.91;2163420;82;20143;-76
2021/05/02 09:31:03;;;;;;;;;;;;;;;13.59;81.76;97170.72;2163565;82;20158;-76
2021/05/02 09:34:05;;;;;;;;;;;;;;;13.48;81.81;97174.44;2142524;82;20166;-77
2021/05/02 09:37:07;;;;;;;;;;;;;;;13.40;82.14;97171.23;2163633;82;20222;-77
2021/05/02 09:40:09;;;;;;;;;;;;;;;13.34;82.40;97166.55;2163764;82;20238;-77
2021/05/02 09:43:12;;;;;;;;;;;;;;;13.34;82.42;97163.91;2163665;82;20498;-77
2021/05/02 09:46:30;;;;;;;;;;;;;;;13.36;82.86;97157.20;2163618;82;20245;-77
2021/05/02 09:49:32;;;;;;;;;;;;;;;13.41;82.71;97164.17;2163765;82;20500;-77
2021/05/02 09:52:34;;;;;;;;;;;;;;;13.41;82.82;97153.14;2163663;82;20246;-76
2021/05/02 09:55:36;;;;;;;;;;;;;;;13.66;83.04;97155.95;2163699;82;20501;-77
2021/05/02 09:58:37;;;;;;;;;;;;;;;13.84;82.68;97148.83;2176212;82;20520;-77
2021/05/02 10:01:39;;;;;;;;;;;;;;;13.94;82.69;97149.23;2181071;82;20236;-76
2021/05/02 10:04:44;;;;;;;;;;;;;;;13.97;82.46;97147.10;2181070;82;20504;-77
2021/05/02 10:07:46;;;;;;;;;;;;;;;14.03;82.29;97157.52;2181126;82;20224;-76
2021/05/02 10:10:48;;;;;;;;;;;;;;;14.02;82.21;97168.56;2181049;82;20225;-76
2021/05/02 10:13:50;;;;;;;;;;;;;;;13.89;82.10;97175.22;2181281;82;20496;-77
2021/05/02 10:16:52;;;;;;;;;;;;;;;13.83;82.56;97181.94;2181023;82;20176;-76
2021/05/02 10:19:54;;;;;;;;;;;;;;;13.69;82.64;97199.11;2180948;82;20145;-76
2021/05/02 10:22:56;;;;;;;;;;;;;;;13.60;83.52;97197.41;2181336;82;20219;-76
2021/05/02 10:25:58;;;;;;;;;;;;;;;13.58;83.18;97202.02;2181127;82;20417;-76
2021/05/02 10:29:00;;;;;;;;;;;;;;;13.58;83.41;97209.91;2181000;82;20224;-76
2021/05/02 10:32:02;;;;;;;;;;;;;;;13.64;83.59;97204.84;2181020;82;20134;-76
2021/05/02 10:35:04;;;;;;;;;;;;;;;13.75;83.81;97207.74;2181015;82;20158;-76
2021/05/02 10:38:06;;;;;;;;;;;;;;;13.91;83.70;97207.53;2181314;82;20153;-76
2021/05/02 10:41:08;;;;;;;;;;;;;;;13.97;83.13;97202.45;2181515;82;20158;-76
2021/05/02 10:44:10;;;;;;;;;;;;;;;14.00;83.18;97215.81;2181029;82;20224;-76
2021/05/02 10:47:12;;;;;;;;;;;;;;;14.02;82.52;97215.16;2153619;82;20217;-77
2021/05/02 10:50:14;;;;;;;;;;;;;;;13.99;82.58;97218.95;2181039;82;20266;-77
2021/05/02 10:53:16;;;;;;;;;;;;;;;13.93;81.81;97217.42;2181034;82;20527;-76
2021/05/02 10:56:18;;;;;;;;;;;;;;;13.78;82.47;97232.97;2180996;82;20499;-77
2021/05/02 10:59:20;;;;;;;;;;;;;;;13.65;82.27;97224.95;2180933;81;20145;-77
2021/05/02 11:02:23;;;;;;;;;;;;;;;13.55;82.68;97242.65;2181134;82;20445;-77
2021/05/02 11:05:25;;;;;;;;;;;;;;;13.41;81.63;97238.73;2180998;82;20194;-76
2021/05/02 11:08:27;;;;;;;;;;;;;;;13.31;81.97;97252.42;2181245;82;20229;-76
2021/05/02 11:11:29;;;;;;;;;;;;;;;13.27;81.89;97265.55;2181080;82;20412;-76
2021/05/02 11:14:32;;;;;;;;;;;;;;;13.24;80.71;97258.77;2180962;82;20253;-77
2021/05/02 11:17:35;;;;;;;;;;;;;;;13.18;80.53;97290.95;2181024;82;20170;-76
2021/05/02 11:20:37;;;;;;;;;;;;;;;13.37;79.66;97289.22;2181026;82;20221;-77
2021/05/02 11:23:39;;;;;;;;;;;;;;;13.42;78.68;97303.59;2180975;82;20237;-76
2021/05/02 11:26:41;;;;;;;;;;;;;;;13.31;77.43;97299.82;2180943;82;20126;-77
2021/05/02 11:29:48;;;;;;;;;;;;;;;13.25;77.01;97287.26;2180992;82;20238;-76
2021/05/02 11:32:49;;;;;;;;;;;;;;;13.54;77.59;97286.27;2180605;82;20165;-76
2021/05/02 11:35:55;;;;;;;;;;;;;;;14.17;75.60;97307.22;2181867;82;20146;-76
2021/05/02 11:38:57;;;;;;;;;;;;;;;14.48;73.01;97304.15;2181013;82;20515;-76
2021/05/02 11:41:59;;;;;;;;;;;;;;;14.92;71.40;97273.39;2180918;82;20229;-75
2021/05/02 11:45:04;;;;;;;;;;;;;;;14.99;69.63;97306.09;2180997;82;20241;-75
2021/05/02 11:48:06;;;;;;;;;;;;;;;14.73;69.10;97295.89;2152919;82;20249;-76
2021/05/02 11:51:08;;;;;;;;;;;;;;;14.18;70.42;97326.52;2181052;82;20575;-76
2021/05/02 11:54:11;;;;;;;;;;;;;;;13.94;69.75;97311.33;2181004;82;20134;-76
2021/05/02 11:57:13;;;;;;;;;;;;;;;13.80;71.35;97344.30;2181100;81;20226;-76
2021/05/02 12:00:15;;;;;;;;;;;;;;;13.68;70.93;97342.38;2181076;82;20284;-76
2021/05/02 12:03:17;;;;;;;;;;;;;;;13.27;69.90;97366.91;2180940;82;20536;-76
2021/05/02 12:06:19;;;;;;;;;;;;;;;13.02;69.84;97361.84;2181283;82;20122;-76
2021/05/02 12:09:23;;;;;;;;;;;;;;;12.82;71.32;97377.69;2181015;82;20497;-76
2021/05/02 12:12:25;;;;;;;;;;;;;;;12.74;71.79;97353.89;2180945;82;20165;-76
2021/05/02 12:15:26;;;;;;;;;;;;;;;12.65;72.07;97358.20;2180934;82;20229;-75
2021/05/02 12:18:28;;;;;;;;;;;;;;;12.65;72.65;97381.39;2181384;82;20240;-76
2021/05/02 12:21:31;;;;;;;;;;;;;;;12.64;69.58;97415.26;2180934;82;20133;-76
2021/05/02 12:24:33;;;;;;;;;;;;;;;12.50;68.19;97398.60;2180947;82;20240;-76
2021/05/02 12:27:36;;;;;;;;;;;;;;;12.36;69.31;97371.42;2180899;82;20280;-76
2021/05/02 12:30:38;;;;;;;;;;;;;;;12.09;69.27;97425.52;2181191;82;20232;-76
2021/05/02 12:33:40;;;;;;;;;;;;;;;11.73;70.79;97355.06;2181035;82;20512;-76
2021/05/02 12:36:42;;;;;;;;;;;;;;;11.55;70.41;97401.33;2152958;82;20245;-76
2021/05/02 12:39:44;;;;;;;;;;;;;;;11.30;71.09;97407.41;2181366;82;20276;-76
2021/05/02 12:42:47;;;;;;;;;;;;;;;11.14;69.71;97460.88;2181047;82;20507;-76
2021/05/02 12:45:49;;;;;;;;;;;;;;;11.12;70.71;97447.89;2181025;82;20505;-76
2021/05/02 12:48:51;;;;;;;;;;;;;;;10.94;70.35;97423.22;2181036;82;20487;-76
2021/05/02 12:51:53;;;;;;;;;;;;;;;10.87;69.97;97443.88;2181037;82;20500;-76
2021/05/02 12:54:55;;;;;;;;;;;;;;;10.96;69.88;97450.98;2180960;82;20141;-76
2021/05/02 12:57:57;;;;;;;;;;;;;;;10.92;70.03;97484.50;2176766;81;20229;-76
2021/05/02 13:01:03;;;;;;;;;;;;;;;10.63;70.24;97482.16;2163600;82;20146;-76
2021/05/02 13:04:04;;;;;;;;;;;;;;;10.38;71.01;97496.78;2163342;82;20163;-76
2021/05/02 13:07:06;;;;;;;;;;;;;;;10.22;71.03;97505.03;2163559;82;20501;-76
2021/05/02 13:10:08;;;;;;;;;;;;;;;10.14;70.96;97492.20;2163880;82;20269;-76
2021/05/02 13:13:10;;;;;;;;;;;;;;;10.02;70.97;97490.09;2163767;82;20229;-76
2021/05/02 13:16:12;;;;;;;;;;;;;;;9.88;72.52;97501.66;2163641;82;20548;-76
2021/05/02 13:19:14;;;;;;;;;;;;;;;9.72;72.70;97520.36;2163914;82;20285;-76
2021/05/02 13:22:16;;;;;;;;;;;;;;;9.70;72.84;97533.58;2163930;82;20269;-76
2021/05/02 13:25:18;;;;;;;;;;;;;;;9.70;72.75;97531.45;2163657;82;20123;-76
2021/05/02 13:28:20;;;;;;;;;;;;;;;9.76;73.11;97549.28;2163653;82;20502;-76
2021/05/02 13:31:22;;;;;;;;;;;;;;;9.76;72.20;97575.96;2163913;82;20126;-76
2021/05/02 13:34:24;;;;;;;;;;;;;;;9.63;73.37;97570.35;2163904;82;20592;-76
2021/05/02 13:37:26;;;;;;;;;;;;;;;9.41;73.77;97597.34;2163600;82;20234;-76
2021/05/02 13:40:28;;;;;;;;;;;;;;;9.10;75.46;97591.79;2163732;82;20233;-76
2021/05/02 13:43:30;;;;;;;;;;;;;;;8.93;75.68;97538.12;2164142;82;20230;-76
2021/05/02 13:46:33;;;;;;;;;;;;;;;8.84;77.14;97570.20;2163785;82;20492;-76
2021/05/02 13:49:35;;;;;;;;;;;;;;;8.67;76.05;97550.03;2163636;82;20178;-76
2021/05/02 13:52:37;;;;;;;;;;;;;;;8.62;75.91;97609.67;2163660;82;20233;-76
2021/05/02 13:55:39;;;;;;;;;;;;;;;8.57;76.50;97597.39;2163717;82;20229;-76
2021/05/02 13:58:41;;;;;;;;;;;;;;;8.54;75.98;97639.92;2170480;81;20252;-76
2021/05/02 14:01:43;;;;;;;;;;;;;;;8.46;77.54;97647.84;2181418;82;20138;-76
2021/05/02 14:04:46;;;;;;;;;;;;;;;8.36;76.70;97657.70;2181411;82;20208;-76
2021/05/02 14:07:48;;;;;;;;;;;;;;;8.26;77.46;97654.44;2181100;82;20234;-76
2021/05/02 14:10:50;;;;;;;;;;;;;;;8.27;76.35;97647.42;2181037;82;20249;-76
2021/05/02 14:13:52;;;;;;;;;;;;;;;8.24;75.28;97621.52;2181032;82;20256;-76
2021/05/02 14:16:54;;;;;;;;;;;;;;;8.32;74.40;97666.23;2181029;82;20614;-75
2021/05/02 14:19:56;;;;;;;;;;;;;;;8.32;73.94;97715.39;2181003;82;20232;-75
2021/05/02 14:22:58;;;;;;;;;;;;;;;8.20;74.34;97703.17;2181048;82;20246;-74
2021/05/02 14:26:02;;;;;;;;;;;;;;;8.12;74.30;97706.33;2180992;82;20217;-75
2021/05/02 14:29:05;;;;;;;;;;;;;;;8.02;74.92;97721.44;2181080;82;20264;-75
2021/05/02 14:32:08;;;;;;;;;;;;;;;7.96;75.59;97674.38;2181161;82;20547;-75
2021/05/02 14:35:10;;;;;;;;;;;;;;;7.93;75.21;97732.86;2181145;82;20500;-76
2021/05/02 14:38:12;;;;;;;;;;;;;;;7.87;75.68;97766.38;2180989;82;20137;-75
2021/05/02 14:41:14;;;;;;;;;;;;;;;7.75;75.85;97757.59;2153147;82;20560;-75
2021/05/02 14:44:16;;;;;;;;;;;;;;;7.77;75.24;97709.57;2181380;82;20122;-75
2021/05/02 14:47:18;;;;;;;;;;;;;;;7.92;75.39;97753.37;2181022;82;20225;-76
2021/05/02 14:50:20;;;;;;;;;;;;;;;7.87;73.91;97783.34;2181510;82;20138;-76
2021/05/02 14:53:22;;;;;;;;;;;;;;;7.75;74.42;97754.50;2180977;82;20233;-76
2021/05/02 14:56:24;;;;;;;;;;;;;;;7.69;75.08;97772.36;2181103;82;20625;-76
2021/05/02 14:59:26;;;;;;;;;;;;;;;7.64;75.58;97772.64;2171067;81;20245;-75
2021/05/02 15:02:28;;;;;;;;;;;;;;;7.66;75.29;97781.67;2163582;82;20127;-75
2021/05/02 15:05:30;;;;;;;;;;;;;;;7.61;74.38;97834.18;2142646;82;20500;-75
2021/05/02 15:08:32;;;;;;;;;;;;;;;7.54;74.78;97813.33;2163885;82;20230;-75
2021/05/02 15:11:34;;;;;;;;;;;;;;;7.49;74.09;97811.50;2163704;82;20606;-75
2021/05/02 15:14:36;;;;;;;;;;;;;;;7.41;74.44;97858.49;2163556;82;20155;-75
2021/05/02 15:17:38;;;;;;;;;;;;;;;7.38;75.18;97820.00;2163530;82;20501;-75
2021/05/02 15:20:40;;;;;;;;;;;;;;;7.34;75.08;97836.34;2163749;82;20249;-75
2021/05/02 15:23:42;;;;;;;;;;;;;;;7.30;75.35;97860.94;2163558;82;20230;-75
2021/05/02 15:26:45;;;;;;;;;;;;;;;7.23;75.48;97874.82;2163640;82;20484;-75
2021/05/02 15:29:47;;;;;;;;;;;;;;;7.20;75.75;97831.16;2163509;82;20123;-74
2021/05/02 15:32:49;;;;;;;;;;;;;;;7.19;75.46;97858.16;2163520;82;20158;-75
2021/05/02 15:35:50;;;;;;;;;;;;;;;7.18;76.14;97831.70;2142601;82;20254;-75
2021/05/02 15:38:52;;;;;;;;;;;;;;;7.10;75.80;97848.67;2163467;82;20237;-76
2021/05/02 15:41:54;;;;;;;;;;;;;;;7.06;75.46;97877.17;2142538;82;20449;-75
2021/05/02 15:44:56;;;;;;;;;;;;;;;7.10;75.73;97870.01;2163556;82;20143;-75
2021/05/02 15:47:58;;;;;;;;;;;;;;;7.16;74.88;97864.40;2163593;82;20246;-75
2021/05/02 15:51:00;;;;;;;;;;;;;;;7.16;75.20;97859.66;2163531;82;20138;-75